Time;durP1;ratioP1;P1;durP2;ratioP2;P2;SDS_P1;SDS_P2;PMS_P1;PMS_P2;Temp;Humidity;BMP_temperature;BMP_pressure;BME280_temperature;BME280_humidity;BME280_pressure;Samples;Min_cycle;Max_cycle;Signal;HPM_P1;HPM_P2
2022/12/31 00:01:12;;;;;;;2.22;1.20;;;;;;;11.76;100.00;100293.28;5138476;27;20024;-38
2022/12/31 00:03:38;;;;;;;1.65;1.02;;;;;;;11.79;100.00;100288.19;5138511;27;20501;-38
2022/12/31 00:06:26;;;;;;;2.83;1.67;;;;;;;11.78;100.00;100285.72;5138462;27;20033;-38
2022/12/31 00:08:54;;;;;;;1.60;1.10;;;;;;;11.78;100.00;100285.72;5138050;27;20031;-38
2022/12/31 00:11:21;;;;;;;2.00;1.30;;;;;;;11.80;100.00;100286.28;5137961;27;20023;-38
2022/12/31 00:13:46;;;;;;;1.60;1.20;;;;;;;11.79;100.00;100287.38;5138042;27;20027;-38
2022/12/31 00:16:30;;;;;;;1.92;1.25;;;;;;;11.78;100.00;100296.56;5137597;27;20391;-38
2022/12/31 00:18:59;;;;;;;1.65;1.40;;;;;;;11.78;100.00;100289.25;5137945;27;20031;-38
2022/12/31 00:21:30;;;;;;;2.67;1.42;;;;;;;11.76;100.00;100277.03;5138127;27;20027;-38
2022/12/31 00:23:55;;;;;;;1.65;1.20;;;;;;;11.81;100.00;100285.25;5138607;27;20416;-38
2022/12/31 00:26:24;;;;;;;3.30;1.40;;;;;;;11.79;100.00;100280.06;5137703;27;20070;-38
2022/12/31 00:28:50;;;;;;;2.55;1.42;;;;;;;11.80;100.00;100281.69;5137687;27;20027;-38
2022/12/31 00:31:24;;;;;;;2.92;1.33;;;;;;;11.84;100.00;100285.56;5137672;27;20031;-38
2022/12/31 00:33:50;;;;;;;1.88;1.23;;;;;;;11.83;100.00;100297.47;5138436;27;20396;-38
2022/12/31 00:36:21;;;;;;;1.80;1.50;;;;;;;11.77;100.00;100265.13;5138075;27;20079;-38
2022/12/31 00:38:48;;;;;;;2.78;1.40;;;;;;;11.83;100.00;100267.69;5137579;27;20023;-38
2022/12/31 00:41:15;;;;;;;1.73;1.42;;;;;;;11.83;100.00;100273.09;5118359;27;20035;-38
2022/12/31 00:43:41;;;;;;;1.73;1.40;;;;;;;11.83;100.00;100269.56;5137936;27;20455;-38
2022/12/31 00:46:10;;;;;;;2.45;1.60;;;;;;;11.83;100.00;100261.44;5137787;27;20027;-38
2022/12/31 00:48:35;;;;;;;3.55;1.40;;;;;;;11.82;100.00;100271.47;5137875;27;20111;-38
2022/12/31 00:51:04;;;;;;;1.77;1.33;;;;;;;11.81;100.00;100266.28;5137299;27;20428;-38
2022/12/31 00:53:29;;;;;;;2.63;1.60;;;;;;;11.66;100.00;100255.22;5137095;27;20023;-38
2022/12/31 00:56:06;;;;;;;2.35;1.50;;;;;;;11.73;100.00;100253.16;5136906;27;20038;-38
2022/12/31 00:58:32;;;;;;;2.50;1.52;;;;;;;11.79;100.00;100271.09;5137292;27;20027;-38
2022/12/31 01:00:58;;;;;;;;;;;;;;;11.78;100.00;100270.28;5138320;27;20023;-38
2022/12/31 01:03:24;;;;;;;2.97;1.90;;;;;;;11.63;100.00;100251.16;5137609;27;20026;-38
2022/12/31 01:05:50;;;;;;;2.15;1.60;;;;;;;11.73;100.00;100253.16;5137165;27;20287;-38
2022/12/31 01:08:16;;;;;;;1.75;1.40;;;;;;;11.77;100.00;100257.00;5137170;27;20035;-38
2022/12/31 01:13:31;;;;;;;2.88;1.70;;;;;;;11.78;100.00;100251.34;5137474;27;20042;-38
2022/12/31 01:15:56;;;;;;;1.90;1.60;;;;;;;11.78;100.00;100243.22;5137579;27;20031;-38
2022/12/31 01:18:21;;;;;;;2.20;1.40;;;;;;;11.79;100.00;100233.19;5137088;27;20030;-38
2022/12/31 01:20:47;;;;;;;3.03;1.60;;;;;;;11.79;100.00;100233.19;5136678;27;20030;-38
2022/12/31 01:23:12;;;;;;;3.00;1.20;;;;;;;11.79;100.00;100239.41;5136964;27;20054;-38
2022/12/31 01:25:40;;;;;;;1.40;0.97;;;;;;;11.78;100.00;100247.81;5136243;27;20398;-38
2022/12/31 01:28:07;;;;;;;1.05;0.90;;;;;;;11.78;100.00;100251.34;5136825;27;20023;-38
2022/12/31 01:30:32;;;;;;;4.60;1.70;;;;;;;11.76;100.00;100260.78;5136492;27;20027;-38
2022/12/31 01:32:58;;;;;;;2.03;1.42;;;;;;;11.73;100.00;100247.75;5137137;27;20159;-38
2022/12/31 01:35:24;;;;;;;1.60;1.20;;;;;;;11.79;100.00;100255.66;5136349;27;20061;-38
2022/12/31 01:37:49;;;;;;;2.80;1.00;;;;;;;11.77;100.00;100257.81;5137003;27;20027;-38
2022/12/31 01:40:14;;;;;;;2.55;1.85;;;;;;;11.76;100.00;100266.19;5137007;27;20023;-38
2022/12/31 01:42:40;;;;;;;1.75;1.25;;;;;;;11.77;100.00;100274.09;5136805;27;20110;-38
2022/12/31 01:45:11;;;;;;;1.50;1.00;;;;;;;11.76;100.00;100271.59;5136197;27;20027;-38
2022/12/31 01:47:40;;;;;;;1.65;1.00;;;;;;;11.72;100.00;100259.66;5136569;27;20478;-38
2022/12/31 01:50:11;;;;;;;1.88;0.85;;;;;;;11.66;100.00;100260.66;5135143;27;20054;-38
2022/12/31 01:52:41;;;;;;;1.40;0.70;;;;;;;11.73;100.00;100282.97;5134834;28;20115;-38
2022/12/31 01:55:17;;;;;;;1.23;0.70;;;;;;;11.73;100.00;100316.28;5135392;28;20030;-38
2022/12/31 01:57:48;;;;;;;1.58;0.70;;;;;;;11.71;100.00;100323.00;5135021;28;20027;-38
2022/12/31 02:00:14;;;;;;;1.98;0.65;;;;;;;11.73;100.00;100356.91;5135284;28;20023;-38
2022/12/31 02:02:39;;;;;;;4.80;0.80;;;;;;;11.73;100.00;100373.16;5134925;28;20023;-38
2022/12/31 02:05:24;;;;;;;1.10;0.60;;;;;;;11.65;100.00;100329.44;5134603;28;20027;-38
2022/12/31 02:07:52;;;;;;;1.58;0.70;;;;;;;11.66;100.00;100291.25;5134512;28;20035;-38
2022/12/31 02:10:17;;;;;;;0.35;0.30;;;;;;;11.56;100.00;100283.81;5134508;27;20027;-38
2022/12/31 02:12:43;;;;;;;1.10;0.50;;;;;;;11.53;100.00;100288.94;5135005;28;20079;-38
2022/12/31 02:15:08;;;;;;;1.13;0.53;;;;;;;11.43;100.00;100289.63;5134503;28;20522;-38
2022/12/31 02:18:08;;;;;;;0.70;0.50;;;;;;;11.46;100.00;100313.47;5134923;28;20283;-38
2022/12/31 02:20:44;;;;;;;1.40;0.30;;;;;;;11.42;100.00;100325.88;5135209;28;20027;-38
2022/12/31 02:23:28;;;;;;;1.55;0.45;;;;;;;11.33;100.00;100322.78;5134633;28;20031;-38
2022/12/31 02:26:11;;;;;;;0.22;0.22;;;;;;;11.37;100.00;100327.69;5134519;28;20027;-38
2022/12/31 02:28:55;;;;;;;0.50;0.30;;;;;;;11.23;100.00;100305.56;5134261;28;20019;-38
2022/12/31 02:31:25;;;;;;;0.40;0.30;;;;;;;11.34;100.00;100324.41;5134855;28;20102;-38
2022/12/31 02:33:57;;;;;;;1.00;0.35;;;;;;;11.27;100.00;100312.09;5134216;28;20034;-38
2022/12/31 02:36:28;;;;;;;0.63;0.50;;;;;;;11.31;100.00;100349.25;5134499;28;20020;-38
2022/12/31 02:38:56;;;;;;;0.38;0.30;;;;;;;11.31;100.00;100329.50;5135553;28;20031;-38
2022/12/31 02:44:23;;;;;;;0.57;0.40;;;;;;;11.30;100.00;100335.97;5134132;28;20088;-36
2022/12/31 02:47:00;;;;;;;1.52;0.60;;;;;;;11.27;100.00;100345.44;5134251;28;20375;-37
2022/12/31 02:49:35;;;;;;;0.70;0.50;;;;;;;11.20;100.00;100327.72;5097092;27;1066556;-38
2022/12/31 02:52:37;;;;;;;0.88;0.40;;;;;;;11.25;100.00;100339.44;5134976;27;20457;-38
2022/12/31 02:55:33;;;;;;;0.60;0.50;;;;;;;11.24;100.00;100342.41;5134681;27;20023;-38
2022/12/31 03:04:30;;;;;;;1.25;0.60;;;;;;;11.17;100.00;100325.50;5135292;27;20034;-38
2022/12/31 03:06:50;;;;;;;1.65;0.75;;;;;;;11.17;100.00;100328.19;5134496;27;20063;-38
2022/12/31 03:09:16;;;;;;;0.98;0.63;;;;;;;11.05;100.00;100321.00;5134711;27;20027;-38
2022/12/31 03:14:25;;;;;;;1.40;0.70;;;;;;;11.04;100.00;100308.53;5134975;27;20034;-38
2022/12/31 03:16:50;;;;;;;1.50;0.60;;;;;;;11.13;100.00;100318.97;5134678;27;20530;-38
2022/12/31 03:27:28;;;;;;;1.48;0.70;;;;;;;11.06;100.00;100306.41;5135184;28;20092;-38
2022/12/31 03:29:53;;;;;;;1.83;0.97;;;;;;;11.08;100.00;100296.16;5134602;28;20412;-38
2022/12/31 03:32:18;;;;;;;1.43;1.00;;;;;;;11.06;100.00;100295.56;5134516;28;20451;-38
2022/12/31 03:34:43;;;;;;;3.43;0.90;;;;;;;11.06;100.00;100295.56;5134586;28;20035;-38
2022/12/31 03:37:09;;;;;;;1.27;0.90;;;;;;;11.04;100.00;100295.00;5134474;28;20068;-38
2022/12/31 03:39:34;;;;;;;1.33;1.00;;;;;;;11.04;100.00;100292.31;5134796;28;20076;-38
2022/12/31 03:41:59;;;;;;;0.87;0.80;;;;;;;11.06;100.00;100282.03;5116566;28;20106;-38
2022/12/31 03:44:25;;;;;;;2.63;1.30;;;;;;;11.08;100.00;100285.34;5135360;28;20016;-38
2022/12/31 03:46:50;;;;;;;3.70;1.43;;;;;;;11.08;100.00;100293.47;5133989;28;20061;-38
2022/12/31 03:49:15;;;;;;;2.13;1.30;;;;;;;11.08;100.00;100292.63;5134583;28;20184;-36
2022/12/31 03:51:41;;;;;;;1.55;1.20;;;;;;;11.03;100.00;100274.44;5134037;28;20490;-37
2022/12/31 03:54:06;;;;;;;2.80;1.30;;;;;;;11.08;100.00;100282.63;5134606;28;20023;-37
2022/12/31 03:56:31;;;;;;;2.43;1.60;;;;;;;11.04;100.00;100270.66;5134492;28;20027;-37
2022/12/31 03:58:57;;;;;;;1.40;1.30;;;;;;;11.04;100.00;100269.84;5134268;28;20084;-37
2022/12/31 04:01:23;;;;;;;2.47;1.50;;;;;;;11.09;100.00;100270.75;5134207;28;20038;-37
2022/12/31 04:03:48;;;;;;;1.80;1.58;;;;;;;11.00;100.00;100266.00;5134756;28;20286;-37
2022/12/31 04:06:14;;;;;;;1.80;1.70;;;;;;;11.06;100.00;100270.41;5134229;28;20020;-37
2022/12/31 04:08:39;;;;;;;2.47;1.50;;;;;;;11.11;100.00;100302.94;5134213;28;20035;-37
2022/12/31 04:11:04;;;;;;;1.47;1.37;;;;;;;11.12;100.00;100303.75;5134672;28;20728;-37
2022/12/31 04:13:30;;;;;;;1.63;1.40;;;;;;;11.14;100.00;100304.34;5133835;28;20076;-37
2022/12/31 04:15:55;;;;;;;3.10;1.50;;;;;;;11.13;100.00;100294.59;5134418;28;20736;-37
2022/12/31 04:18:21;;;;;;;3.43;1.50;;;;;;;11.07;100.00;100293.69;5133838;28;20509;-37
2022/12/31 04:20:46;;;;;;;2.63;1.73;;;;;;;11.13;100.00;100306.25;5133842;28;20485;-37
2022/12/31 04:23:11;;;;;;;1.87;1.50;;;;;;;11.13;100.00;100291.91;5133686;28;20106;-38
2022/12/31 04:25:37;;;;;;;2.53;1.70;;;;;;;11.11;100.00;100294.00;5133859;28;20486;-37
2022/12/31 04:28:02;;;;;;;1.80;1.70;;;;;;;11.07;100.00;100286.38;5133737;28;20088;-37
2022/12/31 04:30:27;;;;;;;1.90;1.52;;;;;;;11.06;100.00;100278.53;5134137;28;20059;-37
2022/12/31 04:32:53;;;;;;;2.13;1.87;;;;;;;11.10;100.00;100279.66;5134447;27;20360;-37
2022/12/31 04:35:18;;;;;;;1.80;1.70;;;;;;;10.98;100.00;100250.00;5137340;27;20080;-37
2022/12/31 04:37:43;;;;;;;1.70;1.60;;;;;;;11.09;100.00;100272.63;5137891;27;20023;-37
2022/12/31 04:40:09;;;;;;;2.00;1.73;;;;;;;11.08;100.00;100266.41;5137536;27;20271;-37
2022/12/31 04:42:35;;;;;;;1.65;1.55;;;;;;;11.07;100.00;100270.16;5137369;27;20019;-37
2022/12/31 04:45:00;;;;;;;1.52;1.42;;;;;;;11.06;100.00;100273.94;5137433;27;20064;-37
2022/12/31 04:47:26;;;;;;;1.57;1.47;;;;;;;11.04;100.00;100265.25;5137430;27;20026;-37
2022/12/31 04:49:51;;;;;;;1.50;1.40;;;;;;;11.03;100.00;100262.81;5138376;27;20837;-37
2022/12/31 04:52:16;;;;;;;1.57;1.47;;;;;;;11.04;100.00;100292.31;5137337;27;20031;-37
2022/12/31 04:54:42;;;;;;;1.70;1.60;;;;;;;11.04;100.00;100297.72;5137611;27;20372;-37
2022/12/31 04:57:07;;;;;;;1.83;1.73;;;;;;;10.98;100.00;100293.31;5137255;27;20375;-37
2022/12/31 04:59:33;;;;;;;1.97;1.80;;;;;;;11.01;100.00;100294.69;5137165;27;20460;-37
2022/12/31 05:01:58;;;;;;;2.15;1.95;;;;;;;10.95;100.00;100285.66;5137327;27;20466;-37
2022/12/31 05:04:23;;;;;;;2.03;1.83;;;;;;;10.95;100.00;100298.38;5137431;27;20348;-37
2022/12/31 05:06:49;;;;;;;2.03;1.83;;;;;;;10.91;100.00;100283.69;5137307;27;20027;-37
2022/12/31 05:09:14;;;;;;;2.60;1.60;;;;;;;10.97;100.00;100305.16;5136970;27;20244;-38
2022/12/31 05:11:40;;;;;;;1.73;1.63;;;;;;;11.04;100.00;100316.66;5136672;27;20375;-37
2022/12/31 05:14:05;;;;;;;2.00;1.80;;;;;;;11.07;100.00;100312.63;5137214;27;20371;-37
2022/12/31 05:16:30;;;;;;;1.93;1.73;;;;;;;11.07;100.00;100315.31;5136797;27;20169;-37
2022/12/31 05:18:55;;;;;;;1.80;1.70;;;;;;;11.05;100.00;100317.47;5137376;27;20059;-37
2022/12/31 05:21:21;;;;;;;2.37;2.13;;;;;;;11.07;100.00;100334.28;5136748;27;20265;-37
2022/12/31 05:23:47;;;;;;;1.90;1.70;;;;;;;11.07;100.00;100321.56;5136507;27;20094;-37
2022/12/31 05:26:13;;;;;;;2.05;1.85;;;;;;;11.07;100.00;100334.28;5136396;27;20027;-37
2022/12/31 05:28:39;;;;;;;3.17;2.00;;;;;;;11.05;100.00;100312.06;5137216;27;20038;-37
2022/12/31 05:31:04;;;;;;;2.45;2.20;;;;;;;11.03;100.00;100317.72;5136796;27;20045;-37
2022/12/31 05:33:30;;;;;;;2.92;2.13;;;;;;;11.12;100.00;100333.53;5136849;27;20031;-37
2022/12/31 05:35:57;;;;;;;2.13;1.92;;;;;;;11.11;100.00;100329.19;5136712;27;20494;-37
2022/12/31 05:38:23;;;;;;;2.20;2.00;;;;;;;11.12;100.00;100330.81;5136654;27;20098;-37
2022/12/31 05:40:48;;;;;;;2.65;2.42;;;;;;;11.12;100.00;100326.22;5136232;27;20457;-37
2022/12/31 05:43:13;;;;;;;2.73;2.50;;;;;;;11.12;100.00;100328.13;5136687;27;20062;-37
2022/12/31 05:45:39;;;;;;;3.10;2.70;;;;;;;11.09;100.00;100327.56;5135217;27;20114;-37
2022/12/31 05:48:04;;;;;;;3.43;2.90;;;;;;;11.16;100.00;100330.09;5136493;27;20732;-37
2022/12/31 05:50:30;;;;;;;3.83;2.90;;;;;;;11.19;100.00;100340.44;5137132;27;20409;-38
2022/12/31 05:52:55;;;;;;;3.70;2.83;;;;;;;11.18;100.00;100329.84;5136317;27;20081;-38
2022/12/31 05:55:21;;;;;;;3.65;2.75;;;;;;;11.29;100.00;100347.88;5136583;27;20363;-38
2022/12/31 05:57:46;;;;;;;3.37;2.30;;;;;;;11.39;100.00;100345.31;5136364;27;20081;-38
2022/12/31 06:00:12;;;;;;;6.33;2.43;;;;;;;11.46;100.00;100332.41;5136025;27;20300;-37
2022/12/31 06:02:37;;;;;;;3.38;2.58;;;;;;;11.47;100.00;100334.09;5136131;27;20080;-38
2022/12/31 06:05:03;;;;;;;3.22;2.33;;;;;;;11.58;100.00;100348.56;5135820;27;20032;-38
2022/12/31 06:07:29;;;;;;;3.33;2.75;;;;;;;11.59;100.00;100355.63;5135820;27;20158;-37
2022/12/31 06:09:54;;;;;;;4.80;3.00;;;;;;;11.58;100.00;100351.28;5136125;27;20352;-37
2022/12/31 06:12:19;;;;;;;3.70;2.97;;;;;;;11.60;100.00;100355.38;5135748;27;20023;-38
2022/12/31 06:14:45;;;;;;;4.60;2.47;;;;;;;11.70;100.00;100351.16;5136247;27;20031;-38
2022/12/31 06:17:10;;;;;;;2.77;2.20;;;;;;;11.70;100.00;100330.31;5135886;27;20105;-37
2022/12/31 06:19:35;;;;;;;2.70;1.97;;;;;;;11.89;100.00;100340.88;5136401;27;20110;-37
2022/12/31 06:22:01;;;;;;;2.47;1.43;;;;;;;11.95;100.00;100337.16;5136045;27;20062;-37
2022/12/31 06:24:26;;;;;;;4.75;1.30;;;;;;;12.19;100.00;100337.72;5135678;27;20312;-37
2022/12/31 06:26:51;;;;;;;3.00;1.10;;;;;;;12.24;100.00;100348.63;5135134;27;20054;-37
2022/12/31 06:29:17;;;;;;;4.17;1.07;;;;;;;12.28;100.00;100334.31;5135425;27;20110;-37
2022/12/31 06:31:43;;;;;;;2.13;0.85;;;;;;;12.31;100.00;100338.41;5136176;27;20132;-37
2022/12/31 06:34:08;;;;;;;3.53;1.10;;;;;;;12.39;100.00;100335.22;5135589;27;20383;-38
2022/12/31 06:36:33;;;;;;;2.87;0.93;;;;;;;12.49;100.00;100340.78;5135010;27;20498;-38
2022/12/31 06:38:59;;;;;;;3.13;0.60;;;;;;;12.48;100.00;100322.03;5134951;27;20025;-37
2022/12/31 06:41:24;;;;;;;2.10;0.63;;;;;;;12.57;100.00;100324.03;5135207;27;20034;-38
2022/12/31 06:43:49;;;;;;;3.20;0.70;;;;;;;12.60;100.00;100336.25;5134878;27;20114;-38
2022/12/31 06:46:16;;;;;;;2.70;0.50;;;;;;;12.71;100.00;100331.75;5134763;27;20323;-38
2022/12/31 06:48:43;;;;;;;1.10;0.50;;;;;;;12.84;100.00;100350.31;5135136;27;20096;-38
2022/12/31 06:51:16;;;;;;;1.95;0.60;;;;;;;13.03;100.00;100346.16;5134985;27;20060;-37
2022/12/31 06:53:41;;;;;;;2.05;0.60;;;;;;;13.21;100.00;100335.94;5135534;27;20475;-37
2022/12/31 06:56:12;;;;;;;2.25;0.43;;;;;;;13.37;100.00;100330.41;5134520;27;20035;-38
2022/12/31 06:58:38;;;;;;;2.80;0.93;;;;;;;13.42;100.00;100321.47;5135281;27;20038;-38
2022/12/31 07:01:21;;;;;;;2.58;0.57;;;;;;;13.56;100.00;100327.22;5134786;27;20019;-38
2022/12/31 07:03:59;;;;;;;0.95;0.40;;;;;;;13.60;100.00;100331.06;5134902;27;20575;-38
2022/12/31 07:06:36;;;;;;;3.22;0.73;;;;;;;13.62;100.00;100321.59;5135602;27;20414;-37
2022/12/31 07:09:19;;;;;;;3.50;0.80;;;;;;;13.67;100.00;100331.66;5134543;27;20364;-38
2022/12/31 07:12:24;;;;;;;3.58;1.20;;;;;;;13.73;100.00;100346.91;5135055;27;20033;-38
2022/12/31 07:14:58;;;;;;;2.83;0.70;;;;;;;13.67;100.00;100358.84;5051635;28;20044;-38
2022/12/31 07:17:59;;;;;;;1.88;0.50;;;;;;;13.58;100.00;100330.53;5052048;28;20124;-38
2022/12/31 07:20:24;;;;;;;2.85;0.68;;;;;;;13.56;100.00;100348.97;5067659;28;20052;-38
2022/12/31 07:22:50;;;;;;;3.28;0.73;;;;;;;13.50;100.00;100339.16;5071728;28;20020;-37
2022/12/31 07:25:17;;;;;;;1.25;0.55;;;;;;;13.45;100.00;100339.13;5071309;28;20068;-38
2022/12/31 07:28:07;;;;;;;2.58;0.60;;;;;;;13.43;100.00;100328.53;5071663;28;20059;-38
2022/12/31 07:30:52;;;;;;;4.40;1.23;;;;;;;13.58;100.00;100339.50;5071500;28;20032;-38
2022/12/31 07:33:33;;;;;;;3.03;0.80;;;;;;;13.64;100.00;100346.56;5071623;28;20489;-38
2022/12/31 07:36:16;;;;;;;2.15;0.77;;;;;;;13.65;100.00;100350.94;5071972;28;20047;-38
2022/12/31 07:38:48;;;;;;;2.65;0.70;;;;;;;13.66;100.00;100332.72;5071566;28;20032;-38
2022/12/31 07:41:38;;;;;;;3.20;0.75;;;;;;;13.79;100.00;100342.31;5071029;28;20087;-38
2022/12/31 07:44:20;;;;;;;5.13;1.00;;;;;;;13.80;100.00;100314.03;5071077;28;20033;-38
2022/12/31 07:46:55;;;;;;;3.20;1.05;;;;;;;13.89;100.00;100326.03;5071524;28;20108;-38
2022/12/31 07:49:21;;;;;;;3.65;2.47;;;;;;;13.94;100.00;100336.94;5071295;28;20053;-38
2022/12/31 07:51:47;;;;;;;2.53;0.90;;;;;;;13.92;100.00;100322.81;5098887;28;20469;-38
2022/12/31 07:54:13;;;;;;;3.08;0.63;;;;;;;13.92;100.00;100341.84;5135169;28;20482;-38
2022/12/31 07:56:38;;;;;;;2.88;0.70;;;;;;;13.93;100.00;100354.34;5134447;28;20027;-38
2022/12/31 07:59:18;;;;;;;4.57;2.03;;;;;;;13.88;100.00;100335.28;5134613;28;20031;-38
2022/12/31 08:02:05;;;;;;;2.72;0.98;;;;;;;13.86;100.00;100337.47;5134907;28;20120;-38
2022/12/31 08:04:57;;;;;;;1.73;0.50;;;;;;;13.75;100.00;100319.47;5134881;28;20027;-38
2022/12/31 08:07:43;;;;;;;4.20;0.80;;;;;;;13.72;100.00;100330.88;5071153;28;20048;-38
2022/12/31 08:10:25;;;;;;;2.45;0.70;;;;;;;13.74;100.00;100345.00;5074902;28;20110;-38
2022/12/31 08:12:56;;;;;;;3.35;0.90;;;;;;;13.72;100.00;100363.47;5074998;28;20504;-38
2022/12/31 08:15:22;;;;;;;2.05;0.80;;;;;;;13.67;100.00;100361.56;5074798;28;20115;-38
2022/12/31 08:17:47;;;;;;;3.35;0.90;;;;;;;13.72;100.00;100364.28;5074361;28;20121;-38
2022/12/31 08:20:15;;;;;;;3.50;0.88;;;;;;;13.72;100.00;100383.31;5074729;28;20028;-38
2022/12/31 08:23:10;;;;;;;5.60;1.23;;;;;;;13.70;100.00;100409.09;5074282;28;20493;-38
2022/12/31 08:26:05;;;;;;;2.40;0.70;;;;;;;13.73;100.00;100414.03;5074739;28;20047;-38
2022/12/31 08:29:00;;;;;;;2.22;0.70;;;;;;;13.77;100.00;100439.59;5074324;28;20063;-38
2022/12/31 08:31:43;;;;;;;5.97;2.33;;;;;;;13.80;100.00;100429.00;5074350;28;20036;-38
2022/12/31 08:34:32;;;;;;;2.15;0.98;;;;;;;13.80;100.00;100458.06;5074099;28;20046;-38
2022/12/31 08:37:07;;;;;;;2.42;0.68;;;;;;;13.85;100.00;100471.69;5074233;28;20435;-38
2022/12/31 08:39:41;;;;;;;2.65;0.73;;;;;;;13.91;100.00;100454.38;5074681;28;20025;-38
2022/12/31 08:42:36;;;;;;;2.33;0.77;;;;;;;13.93;100.00;100473.94;5074372;28;20037;-38
2022/12/31 08:45:09;;;;;;;3.05;0.77;;;;;;;13.97;100.00;100477.78;5119495;27;20039;-38
2022/12/31 08:47:57;;;;;;;1.30;0.70;;;;;;;14.12;100.00;100466.97;5137991;27;20379;-38
2022/12/31 08:50:22;;;;;;;;;;;;;;;14.11;100.00;100487.09;5138022;27;20075;-38
2022/12/31 08:52:48;;;;;;;3.95;0.73;;;;;;;14.06;100.00;100497.94;5137572;27;19958;-38
2022/12/31 08:55:18;;;;;;;2.63;0.80;;;;;;;14.04;100.00;100496.56;5137368;27;20041;-38
2022/12/31 08:57:46;;;;;;;2.88;0.65;;;;;;;13.98;100.00;100512.03;5137212;27;20019;-38
2022/12/31 09:00:15;;;;;;;2.88;0.95;;;;;;;13.95;100.00;100514.44;5137498;27;20118;-38
2022/12/31 09:02:53;;;;;;;1.60;0.68;;;;;;;13.94;100.00;100523.69;5137047;27;20022;-38
2022/12/31 09:05:28;;;;;;;3.35;0.93;;;;;;;13.99;100.00;100521.81;5137370;27;20371;-38
2022/12/31 09:08:21;;;;;;;1.80;0.70;;;;;;;13.98;100.00;100530.25;5136784;27;20542;-38
2022/12/31 09:11:15;;;;;;;4.22;0.80;;;;;;;13.98;100.00;100514.75;5137529;27;20041;-38
2022/12/31 09:13:57;;;;;;;5.22;0.90;;;;;;;13.99;100.00;100527.25;5033617;28;20041;-38
2022/12/31 09:16:43;;;;;;;2.20;0.73;;;;;;;14.08;100.00;100544.72;5033691;28;20041;-38
2022/12/31 09:19:09;;;;;;;1.27;0.68;;;;;;;14.13;100.00;100552.91;4974528;28;20097;-38
2022/12/31 09:21:34;;;;;;;2.55;0.75;;;;;;;14.14;100.00;100570.03;4974647;28;20046;-38
2022/12/31 09:24:00;;;;;;;2.15;0.52;;;;;;;14.16;100.00;100557.84;4974834;28;20050;-38
2022/12/31 09:26:41;;;;;;;2.20;0.68;;;;;;;14.17;100.00;100570.34;4958177;28;20031;-38
2022/12/31 09:29:15;;;;;;;2.53;0.68;;;;;;;14.16;100.00;100576.06;4974875;28;20158;-38
2022/12/31 09:32:03;;;;;;;4.78;1.42;;;;;;;14.05;100.00;100568.88;4974956;28;20038;-38
2022/12/31 09:34:37;;;;;;;1.77;0.60;;;;;;;14.01;100.00;100589.53;4974534;28;20582;-38
2022/12/31 09:37:11;;;;;;;3.22;0.70;;;;;;;13.89;100.00;100587.78;4974602;28;20066;-38
2022/12/31 09:39:41;;;;;;;2.75;0.80;;;;;;;13.66;100.00;100552.81;4974199;28;20030;-38
2022/12/31 09:42:17;;;;;;;2.58;0.77;;;;;;;13.78;100.00;100574.38;4954322;29;20066;-38
2022/12/31 09:45:05;;;;;;;2.20;0.70;;;;;;;13.69;100.00;100574.03;4955204;29;20051;-38
2022/12/31 09:47:52;;;;;;;2.13;0.60;;;;;;;13.72;100.00;100595.28;4955050;29;20039;-38
2022/12/31 09:50:40;;;;;;;3.53;1.10;;;;;;;13.68;100.00;100591.41;4970006;28;20054;-38
2022/12/31 09:53:32;;;;;;;2.85;1.10;;;;;;;13.68;100.00;100596.03;4993672;28;20121;-38
2022/12/31 09:56:16;;;;;;;4.97;1.30;;;;;;;13.70;100.00;100593.88;5041173;28;20047;-38
2022/12/31 09:58:59;;;;;;;3.15;1.20;;;;;;;13.72;100.00;100583.59;5115683;28;20034;-38
2022/12/31 10:01:36;;;;;;;7.05;2.25;;;;;;;13.74;100.00;100598.53;5115969;28;20027;-38
2022/12/31 10:04:19;;;;;;;4.53;2.15;;;;;;;13.78;100.00;100601.56;5115392;28;20027;-38
2022/12/31 10:07:05;;;;;;;4.45;1.70;;;;;;;13.81;100.00;100599.16;5115137;28;20379;-38
2022/12/31 10:10:18;;;;;;;3.47;1.50;;;;;;;13.83;100.00;100590.75;5115251;28;20015;-42
2022/12/31 10:12:55;;;;;;;4.32;1.90;;;;;;;13.83;100.00;100604.31;5012678;28;20049;-39
2022/12/31 10:15:42;;;;;;;4.75;1.80;;;;;;;13.81;100.00;100599.16;5012784;28;20042;-38
2022/12/31 10:18:22;;;;;;;3.60;1.30;;;;;;;13.84;100.00;100604.06;5013331;28;20061;-38
2022/12/31 10:21:00;;;;;;;3.92;1.40;;;;;;;13.87;100.00;100602.72;5012729;28;20133;-38
2022/12/31 10:23:34;;;;;;;5.20;1.95;;;;;;;13.94;100.00;100599.78;5012841;28;20096;-38
2022/12/31 10:26:12;;;;;;;4.45;1.45;;;;;;;13.95;100.00;100596.00;5012774;28;20096;-38
2022/12/31 10:28:54;;;;;;;4.03;1.20;;;;;;;13.90;100.00;100578.56;5031386;28;20398;-38
2022/12/31 10:31:37;;;;;;;4.78;1.00;;;;;;;13.96;100.00;100579.44;5031478;28;20040;-38
2022/12/31 10:34:20;;;;;;;4.45;1.23;;;;;;;14.01;100.00;100570.50;5031727;28;20048;-38
2022/12/31 10:36:53;;;;;;;4.28;1.10;;;;;;;13.97;100.00;100561.22;5031849;28;20505;-38
2022/12/31 10:39:41;;;;;;;5.20;1.20;;;;;;;14.10;100.00;100571.63;5032179;28;20033;-38
2022/12/31 10:42:35;;;;;;;4.22;1.05;;;;;;;14.13;100.00;100565.69;5031905;28;20045;-38
2022/12/31 10:45:37;;;;;;;3.90;1.20;;;;;;;14.17;100.00;100562.19;5031708;28;20037;-38
2022/12/31 10:48:44;;;;;;;3.13;0.90;;;;;;;14.18;100.00;100571.97;5034206;28;20037;-38
2022/12/31 10:51:46;;;;;;;2.20;1.20;;;;;;;14.13;100.00;100563.78;5052409;28;20056;-38
2022/12/31 10:54:18;;;;;;;4.50;1.50;;;;;;;14.24;100.00;100575.53;5051776;28;20032;-38
2022/12/31 10:57:25;;;;;;;5.93;1.45;;;;;;;14.29;100.00;100581.00;5052048;28;20143;-38
2022/12/31 11:00:18;;;;;;;5.22;1.70;;;;;;;14.34;100.00;100583.78;5011852;28;20072;-38
2022/12/31 11:03:02;;;;;;;5.25;1.00;;;;;;;14.39;100.00;100589.25;5012533;28;20069;-38
2022/12/31 11:05:59;;;;;;;4.05;1.42;;;;;;;14.43;100.00;100575.94;5012543;28;20465;-38
2022/12/31 11:08:25;;;;;;;3.42;1.45;;;;;;;14.49;100.00;100579.53;5011776;28;20041;-38
2022/12/31 11:11:07;;;;;;;5.88;1.13;;;;;;;14.47;100.00;100579.78;5011886;28;20042;-38
2022/12/31 11:14:02;;;;;;;4.72;1.15;;;;;;;14.58;100.00;100576.06;5011630;28;20046;-38
2022/12/31 11:17:01;;;;;;;4.88;1.23;;;;;;;14.67;100.00;100584.53;5012430;28;20045;-38
2022/12/31 11:19:31;;;;;;;3.35;0.90;;;;;;;14.74;100.00;100582.41;5011883;28;20375;-38
2022/12/31 11:22:06;;;;;;;5.72;1.48;;;;;;;14.81;100.00;100572.09;5011741;28;20042;-38
2022/12/31 11:24:45;;;;;;;5.70;1.00;;;;;;;14.88;100.00;100590.91;5011875;28;20029;-38
2022/12/31 11:27:53;;;;;;;4.43;1.20;;;;;;;14.88;100.00;100580.84;5015243;28;20100;-38
2022/12/31 11:30:21;;;;;;;4.78;1.65;;;;;;;14.85;100.00;100589.53;4992075;28;20053;-38
2022/12/31 11:33:20;;;;;;;6.15;1.90;;;;;;;14.88;100.00;100593.63;4994764;28;20129;-38
2022/12/31 11:36:10;;;;;;;2.75;1.20;;;;;;;14.90;100.00;100607.81;5031333;28;20048;-38
2022/12/31 11:39:11;;;;;;;2.85;1.20;;;;;;;14.92;100.00;100605.63;5031494;28;20025;-38
2022/12/31 11:41:52;;;;;;;6.40;1.60;;;;;;;14.97;100.00;100602.91;4972994;28;20483;-39
2022/12/31 11:44:49;;;;;;;4.45;1.65;;;;;;;14.88;100.00;100612.66;4976036;28;20487;-38
2022/12/31 11:47:38;;;;;;;5.47;1.35;;;;;;;14.78;100.00;100599.84;4976588;28;20043;-38
2022/12/31 11:50:27;;;;;;;5.35;1.23;;;;;;;14.82;100.00;100616.47;4960140;28;20427;-38
2022/12/31 11:53:06;;;;;;;5.50;1.17;;;;;;;14.62;100.00;100585.34;4937842;29;20149;-38
2022/12/31 11:56:10;;;;;;;4.30;1.10;;;;;;;14.79;100.00;100603.41;4937842;29;20032;-38
2022/12/31 11:58:35;;;;;;;3.90;1.20;;;;;;;14.77;100.00;100606.38;4937800;29;20036;-38
2022/12/31 12:01:12;;;;;;;5.55;1.42;;;;;;;14.69;100.00;100598.72;4938054;29;20713;-38
2022/12/31 12:03:46;;;;;;;3.53;1.10;;;;;;;14.78;100.00;100620.78;4938201;29;20048;-38
2022/12/31 12:06:14;;;;;;;5.47;1.40;;;;;;;14.69;100.00;100606.88;4938066;29;20035;-38
2022/12/31 12:08:40;;;;;;;3.67;1.45;;;;;;;14.71;100.00;100617.50;4956873;29;20439;-38